sensor_id;sensor_type;location;lat;lon;timestamp;pressure;altitude;pressure_sealevel;temperature;humidity
31331;BME280;34067;39.548;-76.088;2022-07-29T00:02:03;100847.74;;;32.44;57.16
31331;BME280;34067;39.548;-76.088;2022-07-29T00:04:31;100853.15;;;31.70;58.67
31331;BME280;34067;39.548;-76.088;2022-07-29T00:07:02;100865.90;;;31.00;60.38
31331;BME280;34067;39.548;-76.088;2022-07-29T00:09:30;100910.93;;;31.83;61.46
31331;BME280;34067;39.548;-76.088;2022-07-29T00:12:00;100962.29;;;27.47;79.57
31331;BME280;34067;39.548;-76.088;2022-07-29T00:14:28;100928.42;;;26.68;83.37
31331;BME280;34067;39.548;-76.088;2022-07-29T00:16:57;100895.60;;;25.53;90.01
31331;BME280;34067;39.548;-76.088;2022-07-29T00:19:24;100882.03;;;27.22;86.26
31331;BME280;34067;39.548;-76.088;2022-07-29T00:21:52;100873.98;;;27.77;84.92
31331;BME280;34067;39.548;-76.088;2022-07-29T00:24:20;100877.88;;;27.83;83.58
31331;BME280;34067;39.548;-76.088;2022-07-29T00:26:48;100883.06;;;28.40;81.55
31331;BME280;34067;39.548;-76.088;2022-07-29T00:29:17;100890.57;;;28.16;81.71
31331;BME280;34067;39.548;-76.088;2022-07-29T00:31:45;100900.76;;;28.85;81.14
31331;BME280;34067;39.548;-76.088;2022-07-29T00:34:13;100915.70;;;28.87;80.06
31331;BME280;34067;39.548;-76.088;2022-07-29T00:36:40;100922.02;;;29.04;79.62
31331;BME280;34067;39.548;-76.088;2022-07-29T00:39:09;100923.96;;;28.20;80.16
31331;BME280;34067;39.548;-76.088;2022-07-29T00:41:36;100937.53;;;28.93;80.29
31331;BME280;34067;39.548;-76.088;2022-07-29T00:44:04;100942.13;;;28.71;79.64
31331;BME280;34067;39.548;-76.088;2022-07-29T00:46:33;100944.20;;;28.59;78.41
31331;BME280;34067;39.548;-76.088;2022-07-29T00:49:01;100943.96;;;28.48;80.37
31331;BME280;34067;39.548;-76.088;2022-07-29T00:51:29;100945.65;;;28.85;79.80
31331;BME280;34067;39.548;-76.088;2022-07-29T00:53:58;100952.06;;;29.04;78.65
31331;BME280;34067;39.548;-76.088;2022-07-29T00:56:26;100956.46;;;28.78;78.09
31331;BME280;34067;39.548;-76.088;2022-07-29T00:58:56;100962.11;;;29.65;78.20
31331;BME280;34067;39.548;-76.088;2022-07-29T01:01:24;100963.23;;;28.67;78.92
31331;BME280;34067;39.548;-76.088;2022-07-29T01:03:53;100977.53;;;29.02;78.88
31331;BME280;34067;39.548;-76.088;2022-07-29T01:06:20;100990.23;;;28.09;81.07
31331;BME280;34067;39.548;-76.088;2022-07-29T01:08:48;100997.92;;;28.68;82.14
31331;BME280;34067;39.548;-76.088;2022-07-29T01:11:17;101003.28;;;29.29;80.84
31331;BME280;34067;39.548;-76.088;2022-07-29T01:13:46;101013.50;;;29.40;80.92
31331;BME280;34067;39.548;-76.088;2022-07-29T01:16:21;101021.96;;;27.84;83.07
31331;BME280;34067;39.548;-76.088;2022-07-29T01:18:56;101029.06;;;28.29;83.68
31331;BME280;34067;39.548;-76.088;2022-07-29T01:21:48;101031.17;;;27.55;86.15
31331;BME280;34067;39.548;-76.088;2022-07-29T01:24:45;101030.11;;;27.88;87.10
31331;BME280;34067;39.548;-76.088;2022-07-29T01:27:36;101032.84;;;27.00;88.90
31331;BME280;34067;39.548;-76.088;2022-07-29T01:30:07;101036.52;;;27.44;87.97
31331;BME280;34067;39.548;-76.088;2022-07-29T01:32:36;101043.37;;;27.35;84.85
31331;BME280;34067;39.548;-76.088;2022-07-29T01:35:12;101043.57;;;27.82;82.31
31331;BME280;34067;39.548;-76.088;2022-07-29T01:37:47;101044.65;;;27.12;82.28
31331;BME280;34067;39.548;-76.088;2022-07-29T01:40:24;101045.54;;;27.82;80.70
31331;BME280;34067;39.548;-76.088;2022-07-29T01:42:58;101053.24;;;27.96;76.84
31331;BME280;34067;39.548;-76.088;2022-07-29T01:45:32;101069.14;;;27.70;77.04
31331;BME280;34067;39.548;-76.088;2022-07-29T01:48:10;101076.74;;;26.61;78.85
31331;BME280;34067;39.548;-76.088;2022-07-29T01:50:45;101080.18;;;26.10;79.09
31331;BME280;34067;39.548;-76.088;2022-07-29T01:53:18;101076.06;;;26.76;75.32
31331;BME280;34067;39.548;-76.088;2022-07-29T01:55:50;101079.36;;;26.28;76.46
31331;BME280;34067;39.548;-76.088;2022-07-29T01:58:20;101083.20;;;25.83;74.77
31331;BME280;34067;39.548;-76.088;2022-07-29T02:00:50;101087.69;;;25.65;73.87
31331;BME280;34067;39.548;-76.088;2022-07-29T02:03:20;101085.73;;;26.33;72.72
31331;BME280;34067;39.548;-76.088;2022-07-29T02:05:50;101082.96;;;26.51;71.22
31331;BME280;34067;39.548;-76.088;2022-07-29T02:08:20;101084.24;;;26.31;69.69
31331;BME280;34067;39.548;-76.088;2022-07-29T02:10:49;101090.54;;;25.73;69.35
31331;BME280;34067;39.548;-76.088;2022-07-29T02:13:19;101102.21;;;25.42;71.05
31331;BME280;34067;39.548;-76.088;2022-07-29T02:15:49;101111.16;;;25.43;71.25
31331;BME280;34067;39.548;-76.088;2022-07-29T02:18:19;101111.65;;;25.93;69.49
31331;BME280;34067;39.548;-76.088;2022-07-29T02:20:52;101114.27;;;26.44;69.74
31331;BME280;34067;39.548;-76.088;2022-07-29T02:23:24;101111.71;;;26.10;72.08
31331;BME280;34067;39.548;-76.088;2022-07-29T02:25:57;101108.36;;;26.58;66.87
31331;BME280;34067;39.548;-76.088;2022-07-29T02:28:27;101108.76;;;26.60;65.44
31331;BME280;34067;39.548;-76.088;2022-07-29T02:30:58;101106.55;;;26.43;64.29
31331;BME280;34067;39.548;-76.088;2022-07-29T02:33:27;101109.19;;;26.66;63.76
31331;BME280;34067;39.548;-76.088;2022-07-29T02:35:59;101110.86;;;25.99;64.48
31331;BME280;34067;39.548;-76.088;2022-07-29T02:38:29;101105.72;;;26.43;63.61
31331;BME280;34067;39.548;-76.088;2022-07-29T02:41:00;101106.17;;;25.83;64.16
31331;BME280;34067;39.548;-76.088;2022-07-29T02:43:30;101108.45;;;26.28;64.05
31331;BME280;34067;39.548;-76.088;2022-07-29T02:45:59;101111.57;;;25.92;62.99
31331;BME280;34067;39.548;-76.088;2022-07-29T02:48:38;101114.41;;;25.07;65.01
31331;BME280;34067;39.548;-76.088;2022-07-29T02:51:15;101115.67;;;25.30;67.16
31331;BME280;34067;39.548;-76.088;2022-07-29T02:53:51;101114.20;;;26.23;65.33
31331;BME280;34067;39.548;-76.088;2022-07-29T02:56:25;101116.83;;;25.71;64.10
31331;BME280;34067;39.548;-76.088;2022-07-29T02:58:58;101115.07;;;26.00;63.42
31331;BME280;34067;39.548;-76.088;2022-07-29T03:01:31;101112.39;;;26.60;62.51
31331;BME280;34067;39.548;-76.088;2022-07-29T03:04:03;101113.97;;;26.76;62.84
31331;BME280;34067;39.548;-76.088;2022-07-29T03:06:33;101116.32;;;26.42;60.23
31331;BME280;34067;39.548;-76.088;2022-07-29T03:09:02;101127.48;;;26.65;60.07
31331;BME280;34067;39.548;-76.088;2022-07-29T03:11:31;101132.93;;;26.71;59.68
31331;BME280;34067;39.548;-76.088;2022-07-29T03:14:01;101143.21;;;26.95;59.98
31331;BME280;34067;39.548;-76.088;2022-07-29T03:16:29;101143.71;;;26.78;59.11
31331;BME280;34067;39.548;-76.088;2022-07-29T03:18:58;101140.72;;;26.65;59.16
31331;BME280;34067;39.548;-76.088;2022-07-29T03:21:26;101141.38;;;27.19;59.20
31331;BME280;34067;39.548;-76.088;2022-07-29T03:23:54;101147.76;;;27.25;60.15
31331;BME280;34067;39.548;-76.088;2022-07-29T03:26:22;101150.44;;;26.85;59.59
31331;BME280;34067;39.548;-76.088;2022-07-29T03:28:49;101147.70;;;26.72;59.52
31331;BME280;34067;39.548;-76.088;2022-07-29T03:31:18;101142.33;;;27.04;59.64
31331;BME280;34067;39.548;-76.088;2022-07-29T03:33:46;101143.35;;;26.74;60.75
31331;BME280;34067;39.548;-76.088;2022-07-29T03:36:14;101138.48;;;26.74;61.35
31331;BME280;34067;39.548;-76.088;2022-07-29T03:38:43;101136.61;;;26.41;61.36
31331;BME280;34067;39.548;-76.088;2022-07-29T03:41:13;101131.09;;;26.80;61.58
31331;BME280;34067;39.548;-76.088;2022-07-29T03:43:42;101131.32;;;26.89;61.61
31331;BME280;34067;39.548;-76.088;2022-07-29T03:46:11;101130.43;;;26.84;61.99
31331;BME280;34067;39.548;-76.088;2022-07-29T03:48:45;101128.47;;;26.60;62.39
31331;BME280;34067;39.548;-76.088;2022-07-29T03:51:14;101129.36;;;26.93;62.26
31331;BME280;34067;39.548;-76.088;2022-07-29T03:53:42;101134.57;;;25.63;63.56
31331;BME280;34067;39.548;-76.088;2022-07-29T03:56:13;101138.70;;;26.30;63.44
31331;BME280;34067;39.548;-76.088;2022-07-29T03:58:44;101145.27;;;26.55;63.96
31331;BME280;34067;39.548;-76.088;2022-07-29T04:01:12;101144.35;;;26.09;63.90
31331;BME280;34067;39.548;-76.088;2022-07-29T04:03:40;101144.99;;;26.32;63.46
31331;BME280;34067;39.548;-76.088;2022-07-29T04:06:08;101149.26;;;26.79;63.20
31331;BME280;34067;39.548;-76.088;2022-07-29T04:08:36;101151.07;;;26.33;63.12
31331;BME280;34067;39.548;-76.088;2022-07-29T04:11:04;101155.98;;;25.92;64.49
31331;BME280;34067;39.548;-76.088;2022-07-29T04:13:33;101155.59;;;26.09;63.87
31331;BME280;34067;39.548;-76.088;2022-07-29T04:16:03;101155.76;;;25.90;63.77
31331;BME280;34067;39.548;-76.088;2022-07-29T04:18:30;101156.53;;;26.23;64.17
31331;BME280;34067;39.548;-76.088;2022-07-29T04:20:58;101160.93;;;25.78;66.35
31331;BME280;34067;39.548;-76.088;2022-07-29T04:23:27;101169.54;;;25.50;66.98
31331;BME280;34067;39.548;-76.088;2022-07-29T04:25:55;101170.71;;;26.10;66.45
31331;BME280;34067;39.548;-76.088;2022-07-29T04:28:22;101166.16;;;25.61;66.74
31331;BME280;34067;39.548;-76.088;2022-07-29T04:30:50;101170.52;;;25.31;66.11
31331;BME280;34067;39.548;-76.088;2022-07-29T04:33:18;101178.57;;;26.33;65.98
31331;BME280;34067;39.548;-76.088;2022-07-29T04:35:46;101180.96;;;26.15;66.43
31331;BME280;34067;39.548;-76.088;2022-07-29T04:38:14;101183.03;;;25.20;66.66
31331;BME280;34067;39.548;-76.088;2022-07-29T04:40:41;101180.69;;;25.48;67.66
31331;BME280;34067;39.548;-76.088;2022-07-29T04:43:09;101176.72;;;25.86;67.91
31331;BME280;34067;39.548;-76.088;2022-07-29T04:45:37;101177.17;;;25.64;68.39
31331;BME280;34067;39.548;-76.088;2022-07-29T04:48:05;101172.26;;;25.95;67.39
31331;BME280;34067;39.548;-76.088;2022-07-29T04:50:33;101171.80;;;25.52;68.51
31331;BME280;34067;39.548;-76.088;2022-07-29T04:53:01;101171.18;;;25.72;68.37
31331;BME280;34067;39.548;-76.088;2022-07-29T04:55:28;101167.51;;;25.91;67.43
31331;BME280;34067;39.548;-76.088;2022-07-29T04:57:57;101163.26;;;25.74;67.63
31331;BME280;34067;39.548;-76.088;2022-07-29T05:03:16;101154.19;;;25.93;67.04
31331;BME280;34067;39.548;-76.088;2022-07-29T05:05:44;101149.12;;;25.46;65.51
31331;BME280;34067;39.548;-76.088;2022-07-29T05:08:12;101147.91;;;25.73;66.64
31331;BME280;34067;39.548;-76.088;2022-07-29T05:10:40;101144.70;;;25.66;65.80
31331;BME280;34067;39.548;-76.088;2022-07-29T05:13:08;101142.71;;;24.75;66.70
31331;BME280;34067;39.548;-76.088;2022-07-29T05:15:36;101145.00;;;26.02;65.82
31331;BME280;34067;39.548;-76.088;2022-07-29T05:18:05;101147.08;;;25.69;65.59
31331;BME280;34067;39.548;-76.088;2022-07-29T05:20:33;101142.36;;;24.98;63.42
31331;BME280;34067;39.548;-76.088;2022-07-29T05:23:01;101146.54;;;25.55;61.64
31331;BME280;34067;39.548;-76.088;2022-07-29T05:25:30;101146.35;;;24.77;62.59
31331;BME280;34067;39.548;-76.088;2022-07-29T05:27:57;101150.13;;;25.45;61.02
31331;BME280;34067;39.548;-76.088;2022-07-29T05:30:25;101153.20;;;25.50;62.19
31331;BME280;34067;39.548;-76.088;2022-07-29T05:32:53;101151.21;;;25.73;61.31
31331;BME280;34067;39.548;-76.088;2022-07-29T05:35:21;101153.59;;;25.54;61.04
31331;BME280;34067;39.548;-76.088;2022-07-29T05:37:49;101159.79;;;25.79;64.37
31331;BME280;34067;39.548;-76.088;2022-07-29T05:40:17;101158.26;;;25.57;65.51
31331;BME280;34067;39.548;-76.088;2022-07-29T05:42:44;101157.32;;;25.94;64.96
31331;BME280;34067;39.548;-76.088;2022-07-29T05:45:12;101152.61;;;25.37;64.53
31331;BME280;34067;39.548;-76.088;2022-07-29T05:47:40;101153.33;;;25.27;66.47
31331;BME280;34067;39.548;-76.088;2022-07-29T05:50:09;101146.65;;;25.32;63.50
31331;BME280;34067;39.548;-76.088;2022-07-29T05:52:37;101146.48;;;25.05;62.96
31331;BME280;34067;39.548;-76.088;2022-07-29T05:55:05;101147.10;;;25.42;60.19
31331;BME280;34067;39.548;-76.088;2022-07-29T05:57:34;101142.42;;;25.26;58.76
31331;BME280;34067;39.548;-76.088;2022-07-29T06:00:03;101140.71;;;25.39;59.17
31331;BME280;34067;39.548;-76.088;2022-07-29T06:02:31;101141.37;;;25.49;61.29
31331;BME280;34067;39.548;-76.088;2022-07-29T06:04:59;101141.64;;;25.12;63.42
31331;BME280;34067;39.548;-76.088;2022-07-29T06:07:27;101140.92;;;24.48;68.97
31331;BME280;34067;39.548;-76.088;2022-07-29T06:09:55;101135.85;;;24.73;69.41
31331;BME280;34067;39.548;-76.088;2022-07-29T06:12:23;101137.20;;;24.27;71.77
31331;BME280;34067;39.548;-76.088;2022-07-29T06:14:51;101134.08;;;23.26;75.84
31331;BME280;34067;39.548;-76.088;2022-07-29T06:17:19;101133.61;;;24.63;69.97
31331;BME280;34067;39.548;-76.088;2022-07-29T06:19:47;101139.34;;;24.22;70.28
31331;BME280;34067;39.548;-76.088;2022-07-29T06:22:15;101142.78;;;23.63;73.56
31331;BME280;34067;39.548;-76.088;2022-07-29T06:24:43;101145.62;;;23.22;75.43
31331;BME280;34067;39.548;-76.088;2022-07-29T06:27:11;101142.20;;;23.12;74.74
31331;BME280;34067;39.548;-76.088;2022-07-29T06:29:39;101142.20;;;23.66;75.68
31331;BME280;34067;39.548;-76.088;2022-07-29T06:32:07;101149.28;;;22.70;77.83
31331;BME280;34067;39.548;-76.088;2022-07-29T06:34:35;101147.76;;;22.88;78.77
31331;BME280;34067;39.548;-76.088;2022-07-29T06:37:06;101143.33;;;23.57;76.49
31331;BME280;34067;39.548;-76.088;2022-07-29T06:39:35;101141.33;;;22.58;82.21
31331;BME280;34067;39.548;-76.088;2022-07-29T06:42:04;101141.97;;;22.87;78.88
31331;BME280;34067;39.548;-76.088;2022-07-29T06:44:32;101141.17;;;22.97;78.79
31331;BME280;34067;39.548;-76.088;2022-07-29T06:47:00;101142.18;;;23.16;79.74
31331;BME280;34067;39.548;-76.088;2022-07-29T06:49:29;101133.00;;;22.89;79.71
31331;BME280;34067;39.548;-76.088;2022-07-29T06:51:57;101131.48;;;23.49;79.31
31331;BME280;34067;39.548;-76.088;2022-07-29T06:54:25;101121.20;;;23.21;77.53
31331;BME280;34067;39.548;-76.088;2022-07-29T06:56:53;101123.35;;;23.63;76.50
31331;BME280;34067;39.548;-76.088;2022-07-29T06:59:21;101125.47;;;23.13;78.87
31331;BME280;34067;39.548;-76.088;2022-07-29T07:01:49;101124.56;;;22.48;80.53
31331;BME280;34067;39.548;-76.088;2022-07-29T07:04:16;101125.26;;;22.75;77.16
31331;BME280;34067;39.548;-76.088;2022-07-29T07:06:44;101125.38;;;22.77;79.25
31331;BME280;34067;39.548;-76.088;2022-07-29T07:09:12;101130.81;;;23.21;76.60
31331;BME280;34067;39.548;-76.088;2022-07-29T07:11:40;101129.56;;;22.91;78.48
31331;BME280;34067;39.548;-76.088;2022-07-29T07:14:08;101140.60;;;23.41;78.63
31331;BME280;34067;39.548;-76.088;2022-07-29T07:16:36;101145.62;;;22.61;75.59
31331;BME280;34067;39.548;-76.088;2022-07-29T07:19:03;101138.42;;;23.04;75.08
31331;BME280;34067;39.548;-76.088;2022-07-29T07:21:32;101142.18;;;23.12;74.88
31331;BME280;34067;39.548;-76.088;2022-07-29T07:24:01;101142.09;;;23.09;75.04
31331;BME280;34067;39.548;-76.088;2022-07-29T07:26:29;101148.50;;;22.83;75.10
31331;BME280;34067;39.548;-76.088;2022-07-29T07:28:56;101145.76;;;23.48;76.75
31331;BME280;34067;39.548;-76.088;2022-07-29T07:31:24;101135.83;;;23.37;76.57
31331;BME280;34067;39.548;-76.088;2022-07-29T07:33:52;101137.30;;;22.49;77.61
31331;BME280;34067;39.548;-76.088;2022-07-29T07:36:20;101142.39;;;22.36;80.37
31331;BME280;34067;39.548;-76.088;2022-07-29T07:38:48;101144.23;;;23.32;78.69
31331;BME280;34067;39.548;-76.088;2022-07-29T07:41:16;101140.56;;;23.39;82.89
31331;BME280;34067;39.548;-76.088;2022-07-29T07:43:44;101134.28;;;22.48;81.50
31331;BME280;34067;39.548;-76.088;2022-07-29T07:46:12;101139.44;;;22.36;88.19
31331;BME280;34067;39.548;-76.088;2022-07-29T07:48:40;101145.36;;;22.58;83.18
31331;BME280;34067;39.548;-76.088;2022-07-29T07:51:08;101141.69;;;23.12;82.70
31331;BME280;34067;39.548;-76.088;2022-07-29T07:53:35;101144.57;;;21.97;85.76
31331;BME280;34067;39.548;-76.088;2022-07-29T07:56:03;101132.97;;;21.95;85.72
31331;BME280;34067;39.548;-76.088;2022-07-29T07:58:31;101140.63;;;22.25;83.83
31331;BME280;34067;39.548;-76.088;2022-07-29T08:00:59;101144.23;;;22.66;80.57
31331;BME280;34067;39.548;-76.088;2022-07-29T08:03:27;101147.94;;;23.12;80.80
31331;BME280;34067;39.548;-76.088;2022-07-29T08:05:55;101150.64;;;24.09;77.20
31331;BME280;34067;39.548;-76.088;2022-07-29T08:08:22;101155.18;;;23.06;77.40
31331;BME280;34067;39.548;-76.088;2022-07-29T08:10:50;101162.39;;;23.38;77.24
31331;BME280;34067;39.548;-76.088;2022-07-29T08:13:19;101166.57;;;22.94;78.92
31331;BME280;34067;39.548;-76.088;2022-07-29T08:15:48;101162.80;;;23.08;84.07
31331;BME280;34067;39.548;-76.088;2022-07-29T08:18:16;101158.89;;;22.79;83.26
31331;BME280;34067;39.548;-76.088;2022-07-29T08:20:43;101167.41;;;23.02;81.64
31331;BME280;34067;39.548;-76.088;2022-07-29T08:23:11;101165.12;;;22.16;86.11
31331;BME280;34067;39.548;-76.088;2022-07-29T08:25:39;101166.48;;;23.50;82.55
31331;BME280;34067;39.548;-76.088;2022-07-29T08:28:07;101163.14;;;22.82;80.60
31331;BME280;34067;39.548;-76.088;2022-07-29T08:30:35;101166.99;;;22.62;83.30
31331;BME280;34067;39.548;-76.088;2022-07-29T08:33:03;101167.67;;;22.82;81.19
31331;BME280;34067;39.548;-76.088;2022-07-29T08:35:31;101162.09;;;22.79;81.32
31331;BME280;34067;39.548;-76.088;2022-07-29T08:37:59;101163.33;;;22.54;81.31
31331;BME280;34067;39.548;-76.088;2022-07-29T08:40:27;101157.46;;;22.45;80.45
31331;BME280;34067;39.548;-76.088;2022-07-29T08:42:55;101150.96;;;22.06;82.12
31331;BME280;34067;39.548;-76.088;2022-07-29T08:45:23;101148.68;;;22.49;80.19
31331;BME280;34067;39.548;-76.088;2022-07-29T08:47:53;101144.46;;;23.16;81.15
31331;BME280;34067;39.548;-76.088;2022-07-29T08:50:21;101147.79;;;23.00;85.15
31331;BME280;34067;39.548;-76.088;2022-07-29T08:52:49;101143.10;;;23.28;94.96
31331;BME280;34067;39.548;-76.088;2022-07-29T08:55:18;101144.57;;;22.80;88.73
31331;BME280;34067;39.548;-76.088;2022-07-29T08:57:47;101144.74;;;22.55;87.16
31331;BME280;34067;39.548;-76.088;2022-07-29T09:00:15;101152.19;;;22.47;87.56
31331;BME280;34067;39.548;-76.088;2022-07-29T09:02:47;101147.72;;;22.22;91.85
31331;BME280;34067;39.548;-76.088;2022-07-29T09:05:16;101158.83;;;22.05;89.38
31331;BME280;34067;39.548;-76.088;2022-07-29T09:07:44;101159.52;;;22.64;85.53
31331;BME280;34067;39.548;-76.088;2022-07-29T09:10:13;101160.96;;;22.02;88.23
31331;BME280;34067;39.548;-76.088;2022-07-29T09:12:40;101168.07;;;21.85;84.20
31331;BME280;34067;39.548;-76.088;2022-07-29T09:15:08;101169.38;;;22.47;81.09
31331;BME280;34067;39.548;-76.088;2022-07-29T09:17:46;101171.12;;;22.62;81.49
31331;BME280;34067;39.548;-76.088;2022-07-29T09:20:16;101178.54;;;22.12;82.00
31331;BME280;34067;39.548;-76.088;2022-07-29T09:22:44;101171.89;;;22.65;80.02
31331;BME280;34067;39.548;-76.088;2022-07-29T09:25:12;101179.62;;;22.92;78.86
31331;BME280;34067;39.548;-76.088;2022-07-29T09:27:40;101182.56;;;22.45;78.36
31331;BME280;34067;39.548;-76.088;2022-07-29T09:30:10;101188.58;;;23.05;75.02
31331;BME280;34067;39.548;-76.088;2022-07-29T09:33:00;101180.04;;;23.07;74.12
31331;BME280;34067;39.548;-76.088;2022-07-29T09:35:30;101174.15;;;22.22;74.66
31331;BME280;34067;39.548;-76.088;2022-07-29T09:38:11;101175.74;;;22.87;72.81
31331;BME280;34067;39.548;-76.088;2022-07-29T09:40:40;101178.23;;;23.73;70.54
31331;BME280;34067;39.548;-76.088;2022-07-29T09:43:12;101179.28;;;23.63;69.50
31331;BME280;34067;39.548;-76.088;2022-07-29T09:45:41;101178.59;;;22.61;72.11
31331;BME280;34067;39.548;-76.088;2022-07-29T09:48:18;101186.99;;;23.45;71.18
31331;BME280;34067;39.548;-76.088;2022-07-29T09:50:46;101191.12;;;24.06;69.57
31331;BME280;34067;39.548;-76.088;2022-07-29T09:53:31;101187.35;;;24.70;67.79
31331;BME280;34067;39.548;-76.088;2022-07-29T09:56:00;101190.49;;;23.78;69.32
31331;BME280;34067;39.548;-76.088;2022-07-29T09:58:28;101193.43;;;24.50;66.84
31331;BME280;34067;39.548;-76.088;2022-07-29T10:00:56;101197.87;;;24.25;66.89
31331;BME280;34067;39.548;-76.088;2022-07-29T10:03:24;101200.23;;;24.65;65.46
31331;BME280;34067;39.548;-76.088;2022-07-29T10:06:09;101194.16;;;25.12;64.92
31331;BME280;34067;39.548;-76.088;2022-07-29T10:08:38;101198.12;;;24.34;66.89
31331;BME280;34067;39.548;-76.088;2022-07-29T10:11:14;101195.25;;;24.85;66.53
31331;BME280;34067;39.548;-76.088;2022-07-29T10:13:45;101196.43;;;24.47;72.17
31331;BME280;34067;39.548;-76.088;2022-07-29T10:16:14;101203.67;;;24.01;71.46
31331;BME280;34067;39.548;-76.088;2022-07-29T10:18:43;101204.25;;;23.68;73.29
31331;BME280;34067;39.548;-76.088;2022-07-29T10:21:11;101208.01;;;24.08;75.02
31331;BME280;34067;39.548;-76.088;2022-07-29T10:23:40;101215.32;;;23.63;75.42
31331;BME280;34067;39.548;-76.088;2022-07-29T10:26:10;101218.74;;;24.51;72.06
31331;BME280;34067;39.548;-76.088;2022-07-29T10:28:38;101220.63;;;24.29;70.50
31331;BME280;34067;39.548;-76.088;2022-07-29T10:31:11;101222.90;;;23.76;69.59
31331;BME280;34067;39.548;-76.088;2022-07-29T10:33:54;101226.92;;;23.63;68.51
31331;BME280;34067;39.548;-76.088;2022-07-29T10:36:40;101229.86;;;24.63;68.63
31331;BME280;34067;39.548;-76.088;2022-07-29T10:39:19;101231.14;;;23.56;69.80
31331;BME280;34067;39.548;-76.088;2022-07-29T10:42:06;101228.06;;;24.32;69.40
31331;BME280;34067;39.548;-76.088;2022-07-29T10:44:40;101230.56;;;24.63;67.43
31331;BME280;34067;39.548;-76.088;2022-07-29T10:47:20;101233.51;;;24.46;69.10
31331;BME280;34067;39.548;-76.088;2022-07-29T10:49:57;101233.26;;;24.18;69.75
31331;BME280;34067;39.548;-76.088;2022-07-29T10:52:38;101233.54;;;23.96;69.88
31331;BME280;34067;39.548;-76.088;2022-07-29T10:55:32;101232.71;;;23.97;69.79
31331;BME280;34067;39.548;-76.088;2022-07-29T10:58:17;101232.46;;;24.58;68.41
31331;BME280;34067;39.548;-76.088;2022-07-29T11:00:47;101229.14;;;25.25;65.34
31331;BME280;34067;39.548;-76.088;2022-07-29T11:03:48;101231.18;;;25.68;63.18
31331;BME280;34067;39.548;-76.088;2022-07-29T11:06:17;101225.13;;;25.89;60.98
31331;BME280;34067;39.548;-76.088;2022-07-29T11:08:46;101218.46;;;26.29;61.52
31331;BME280;34067;39.548;-76.088;2022-07-29T11:11:42;101213.05;;;26.64;60.64
31331;BME280;34067;39.548;-76.088;2022-07-29T11:14:10;101211.05;;;25.60;62.87
31331;BME280;34067;39.548;-76.088;2022-07-29T11:17:10;101206.41;;;24.51;68.05
31331;BME280;34067;39.548;-76.088;2022-07-29T11:19:38;101205.48;;;23.93;71.08
31331;BME280;34067;39.548;-76.088;2022-07-29T11:22:08;101213.63;;;24.12;70.67
31331;BME280;34067;39.548;-76.088;2022-07-29T11:24:36;101220.72;;;24.55;72.09
31331;BME280;34067;39.548;-76.088;2022-07-29T11:27:14;101226.62;;;25.18;68.81
31331;BME280;34067;39.548;-76.088;2022-07-29T11:29:59;101243.35;;;25.92;65.74
31331;BME280;34067;39.548;-76.088;2022-07-29T11:32:37;101246.25;;;26.17;62.48
31331;BME280;34067;39.548;-76.088;2022-07-29T11:35:16;101243.59;;;26.36;61.86
31331;BME280;34067;39.548;-76.088;2022-07-29T11:37:45;101240.15;;;27.34;60.69
31331;BME280;34067;39.548;-76.088;2022-07-29T11:40:16;101240.28;;;27.05;59.69
31331;BME280;34067;39.548;-76.088;2022-07-29T11:42:45;101238.50;;;27.51;59.02
31331;BME280;34067;39.548;-76.088;2022-07-29T11:45:18;101241.23;;;27.58;58.38
31331;BME280;34067;39.548;-76.088;2022-07-29T11:47:51;101248.52;;;27.80;57.44
31331;BME280;34067;39.548;-76.088;2022-07-29T11:50:30;101251.83;;;27.48;57.38
31331;BME280;34067;39.548;-76.088;2022-07-29T11:52:59;101253.25;;;27.49;57.70
31331;BME280;34067;39.548;-76.088;2022-07-29T11:55:27;101258.50;;;28.17;57.79
31331;BME280;34067;39.548;-76.088;2022-07-29T11:57:56;101259.86;;;27.92;57.96
31331;BME280;34067;39.548;-76.088;2022-07-29T12:00:28;101263.01;;;27.05;58.05
31331;BME280;34067;39.548;-76.088;2022-07-29T12:02:57;101261.16;;;28.00;58.52
31331;BME280;34067;39.548;-76.088;2022-07-29T12:05:36;101260.93;;;28.10;58.07
31331;BME280;34067;39.548;-76.088;2022-07-29T12:08:07;101261.80;;;27.43;59.68
31331;BME280;34067;39.548;-76.088;2022-07-29T12:10:35;101264.00;;;27.46;59.21
31331;BME280;34067;39.548;-76.088;2022-07-29T12:13:05;101267.87;;;27.25;59.78
31331;BME280;34067;39.548;-76.088;2022-07-29T12:15:33;101278.68;;;27.33;59.87
31331;BME280;34067;39.548;-76.088;2022-07-29T12:18:11;101283.68;;;27.30;60.88
31331;BME280;34067;39.548;-76.088;2022-07-29T12:20:39;101288.49;;;26.83;61.08
31331;BME280;34067;39.548;-76.088;2022-07-29T12:23:08;101288.51;;;26.99;60.61
31331;BME280;34067;39.548;-76.088;2022-07-29T12:25:36;101289.91;;;27.66;60.84
31331;BME280;34067;39.548;-76.088;2022-07-29T12:28:05;101295.86;;;28.00;60.75
31331;BME280;34067;39.548;-76.088;2022-07-29T12:30:37;101302.01;;;27.67;60.37
31331;BME280;34067;39.548;-76.088;2022-07-29T12:33:12;101308.81;;;27.56;60.60
31331;BME280;34067;39.548;-76.088;2022-07-29T12:35:44;101310.00;;;27.75;60.08
31331;BME280;34067;39.548;-76.088;2022-07-29T12:38:12;101309.39;;;27.92;60.10
31331;BME280;34067;39.548;-76.088;2022-07-29T12:40:42;101301.29;;;27.95;59.78
31331;BME280;34067;39.548;-76.088;2022-07-29T12:43:14;101294.90;;;27.96;59.25
31331;BME280;34067;39.548;-76.088;2022-07-29T12:45:44;101295.88;;;27.94;59.30
31331;BME280;34067;39.548;-76.088;2022-07-29T12:48:13;101297.47;;;28.09;58.73
31331;BME280;34067;39.548;-76.088;2022-07-29T12:51:00;101295.90;;;28.11;58.77